カンゲルルススアーク の空港の天気 - METARとTAF

カンゲルルススアーク空港 ( BGSF / SFJ ) - グリーンランド カンゲルルススアーク
飛行場実況気象(Metar)
観測時間06/24 07:50 WGST (06/24 09:50 UTC)
風向・風速北東 3m/s
視程-
天気現象
全天の4割程度の雲 雲底高度 3960m
気温7℃
湿度81%
気圧1011hPa
METARBGSF 240950Z AUTO 05005KT 9999NDV SCT130/// 07/04 Q1011
過去の天気等 Google飛行場航空写真 Wunderground天気予報

過去48時間のMETAR

飛行場予報(TAF)
発表時間: 6/24 05:16 WGST (6/24 07:16 UTC)
予報対象時間: 24日5時 WGST ~ 25日10時 WGST
風向・風速不定 4m/s
視程10km以上
少しの雲 雲底高度 1520m
全天の8割程度の雲 雲底高度 3050m
24日5時 WGST ~ 24日10時 WGST に一時的に
全天の8割程度の雲 雲底高度 270m
24日10時 WGST ~ 25日10時 WGST に一時的に
全天の8割程度の雲 雲底高度 1070m
TAF AMD BGSF 240716Z 2407/2512 VRB08KT 9999 FEW050 BKN100
TEMPO 2407/2412 BKN009
TEMPO 2412/2512 BKN035